DAUZ

Details ICAO DAUZ (IAM)
Name IN AMENAS
Region Algeria
Timezone Africa/Algiers (UTC+1.0)
Plans Departing 13
Arriving 19
Stats Elevation 1,847 ft / 563 m (AMSL)
Location 28.057591° 9.640928°
Runways 2
Magnetic Variation 1.749° E
Sunrise 2017-12-11 06:04:16 UTC / 2017-12-11 07:04:16 Local
Sunset 2017-12-11 16:28:01 UTC / 2017-12-11 17:28:01 Local
Advertisement - Login to hide

Runways

ID Width Length Bearing (true) Bearing (mag) Surface Threshold Offset Overrun Length
05 148 ft / 45 m 9,854 ft / 3,004 m 46.75° 45.00° Asphalt 0 ft / 0 m 0 ft / 0 m
15 98 ft / 30 m 7,240 ft / 2,207 m 145.27° 143.52° Asphalt 0 ft / 0 m 0 ft / 0 m
23 148 ft / 45 m 9,854 ft / 3,004 m 226.76° 225.01° Asphalt 0 ft / 0 m 0 ft / 0 m
33 98 ft / 30 m 7,240 ft / 2,207 m 325.28° 323.53° Asphalt 0 ft / 0 m 148 ft / 45 m

Map

Weather


0- 5 10 15 20 25 30 35+ Temperature / ° C

Clouds and Precipitation
Forecast for 2017-12-12 00:00 UTC. Updated a few seconds ago

Ground ~20,000 ft ~40,000 ft Winds

METAR

DAUZ 112100Z 11009KT CAVOK 08/M05 Q1018

TAF

TAF DAUZ 111700Z 1118/1218 14012KT CAVOK

Frequencies

Tower 119.70 MHz TWR
Tower 118.70 MHz TWR
Warning: Do not use this data for real-world aviation or navigation. No guarantee of current accuracy is given.